createdAt,value
2019-01-03T00:02:24.311Z,96.49
2019-01-03T00:05:13.857Z,96.79
2019-01-03T00:08:02.866Z,97.18
2019-01-03T00:11:02.188Z,99.83
2019-01-03T00:13:52.061Z,100.00
2019-01-03T00:17:02.962Z,100.00
2019-01-03T00:19:57.500Z,100.00
2019-01-03T00:22:46.751Z,100.00
2019-01-03T00:25:43.385Z,100.00
2019-01-03T00:28:27.308Z,100.00
2019-01-03T00:31:17.299Z,100.00
2019-01-03T00:34:21.545Z,100.00
2019-01-03T00:37:10.932Z,100.00
2019-01-03T00:40:00.085Z,100.00
2019-01-03T00:42:54.530Z,100.00
2019-01-03T00:45:43.447Z,100.00
2019-01-03T00:48:34.302Z,100.00
2019-01-03T00:51:24.353Z,100.00
2019-01-03T00:54:23.577Z,100.00
2019-01-03T00:57:32.630Z,100.00
2019-01-03T01:00:24.346Z,100.00
2019-01-03T01:03:28.806Z,99.33
2019-01-03T01:06:17.008Z,97.23
2019-01-03T01:09:06.867Z,94.46
2019-01-03T01:12:07.819Z,94.62
2019-01-03T01:15:00.520Z,91.47
2019-01-03T01:17:56.415Z,91.61
2019-01-03T01:20:46.117Z,88.27
2019-01-03T01:23:54.794Z,84.30
2019-01-03T01:26:44.218Z,82.56
2019-01-03T01:29:41.883Z,81.54
2019-01-03T01:32:36.485Z,80.34
2019-01-03T01:35:33.694Z,80.30
2019-01-03T01:38:37.927Z,80.88
2019-01-03T01:41:46.971Z,81.40
2019-01-03T01:44:38.925Z,81.93
2019-01-03T01:47:30.293Z,83.13
2019-01-03T01:50:21.589Z,84.26
2019-01-03T01:53:12.693Z,84.23
2019-01-03T01:56:01.994Z,84.15
2019-01-03T01:58:56.386Z,83.98
2019-01-03T02:01:58.869Z,83.89
2019-01-03T02:05:05.773Z,83.07
2019-01-03T02:08:12.963Z,81.76
2019-01-03T02:11:08.434Z,82.63
2019-01-03T02:13:59.176Z,82.92
2019-01-03T02:17:03.763Z,83.68
2019-01-03T02:19:48.468Z,84.47
2019-01-03T02:22:38.247Z,85.23
2019-01-03T02:25:44.868Z,85.80
2019-01-03T02:28:35.907Z,86.36
2019-01-03T02:31:45.921Z,86.52
2019-01-03T02:34:45.683Z,86.71
2019-01-03T02:37:50.026Z,85.85
2019-01-03T02:40:51.157Z,84.27
2019-01-03T02:43:41.340Z,83.17
2019-01-03T02:46:36.685Z,78.06
2019-01-03T02:49:29.740Z,77.95
2019-01-03T02:52:22.822Z,80.29
2019-01-03T02:55:27.554Z,82.26
2019-01-03T02:58:17.959Z,78.39
2019-01-03T03:01:04.801Z,76.83
2019-01-03T03:04:02.856Z,78.05
2019-01-03T03:06:55.138Z,78.76
2019-01-03T03:09:51.456Z,80.21
2019-01-03T03:12:54.990Z,81.85
2019-01-03T03:16:00.321Z,79.45
2019-01-03T03:19:03.128Z,80.85
2019-01-03T03:21:53.851Z,80.71
2019-01-03T03:24:51.522Z,78.97
2019-01-03T03:28:00.116Z,78.67
2019-01-03T03:30:49.720Z,77.03
2019-01-03T03:33:38.410Z,76.16
2019-01-03T03:36:32.374Z,76.31
2019-01-03T03:39:20.737Z,76.16
2019-01-03T03:42:12.105Z,75.23
2019-01-03T03:44:55.591Z,74.93
2019-01-03T03:47:48.053Z,73.45
2019-01-03T03:50:33.214Z,72.98
2019-01-03T03:53:23.026Z,72.51
2019-01-03T03:56:13.357Z,73.30
2019-01-03T03:59:20.553Z,71.07
2019-01-03T04:02:18.478Z,70.09
2019-01-03T04:05:07.976Z,69.21
2019-01-03T04:07:57.091Z,70.92
2019-01-03T04:10:59.753Z,71.56
2019-01-03T04:14:09.655Z,71.38
2019-01-03T04:17:06.364Z,72.10
2019-01-03T04:20:04.274Z,72.26
2019-01-03T04:23:02.189Z,72.97
2019-01-03T04:26:00.563Z,73.64
2019-01-03T04:29:00.286Z,74.76
2019-01-03T04:31:48.530Z,74.96
2019-01-03T04:34:51.237Z,75.98
2019-01-03T04:37:42.355Z,76.23
2019-01-03T04:40:37.500Z,77.17
2019-01-03T04:43:35.211Z,77.01
2019-01-03T04:46:36.193Z,78.25
2019-01-03T04:49:25.802Z,78.17
2019-01-03T04:52:14.477Z,78.14
2019-01-03T04:55:07.662Z,87.75
2019-01-03T04:58:15.319Z,93.31
2019-01-03T05:01:17.293Z,92.79
2019-01-03T05:04:15.449Z,93.70
2019-01-03T05:07:04.129Z,87.88
2019-01-03T05:10:02.488Z,83.83
2019-01-03T05:12:52.967Z,83.37
2019-01-03T05:15:40.178Z,82.74
2019-01-03T05:18:32.081Z,82.17
2019-01-03T05:21:23.568Z,81.96
2019-01-03T05:24:17.520Z,84.66
2019-01-03T05:27:28.184Z,88.96
2019-01-03T05:30:21.182Z,90.71
2019-01-03T05:33:14.446Z,91.64
2019-01-03T05:36:05.392Z,92.38
2019-01-03T05:39:04.887Z,92.58
2019-01-03T05:42:03.316Z,91.17
2019-01-03T05:45:06.763Z,89.93
2019-01-03T05:48:01.355Z,86.52
2019-01-03T05:50:53.675Z,85.61
2019-01-03T05:53:38.266Z,84.23
2019-01-03T05:56:34.366Z,83.82
2019-01-03T05:59:24.544Z,84.08
2019-01-03T06:02:15.545Z,84.75
2019-01-03T06:05:04.897Z,84.42
2019-01-03T06:08:06.905Z,84.50
2019-01-03T06:10:56.190Z,83.08
2019-01-03T06:13:46.832Z,81.64
2019-01-03T06:16:38.011Z,80.09
2019-01-03T06:19:37.228Z,78.72
2019-01-03T06:22:33.704Z,78.05
2019-01-03T06:25:25.886Z,78.35
2019-01-03T06:28:12.371Z,77.26
2019-01-03T06:31:03.943Z,75.63
2019-01-03T06:33:54.600Z,73.13
2019-01-03T06:36:45.020Z,73.41
2019-01-03T06:39:45.055Z,72.65
2019-01-03T06:42:52.433Z,73.41
2019-01-03T06:45:42.347Z,74.47
2019-01-03T06:48:31.776Z,74.47
2019-01-03T06:51:29.614Z,75.19
2019-01-03T06:54:18.814Z,76.51
2019-01-03T06:57:24.176Z,77.32
2019-01-03T07:00:30.432Z,78.47
2019-01-03T07:03:17.861Z,79.07
2019-01-03T07:06:09.056Z,79.58
2019-01-03T07:09:23.354Z,79.26
2019-01-03T07:12:13.919Z,78.96
2019-01-03T07:15:21.461Z,78.90
2019-01-03T07:18:12.011Z,76.43
2019-01-03T07:21:04.402Z,76.36
2019-01-03T07:23:54.688Z,76.65
2019-01-03T07:26:43.607Z,76.44
2019-01-03T07:29:40.562Z,76.90
2019-01-03T07:32:32.990Z,76.02
2019-01-03T07:35:22.023Z,76.80
2019-01-03T07:38:13.862Z,76.67
2019-01-03T07:41:15.463Z,75.89
2019-01-03T07:44:22.915Z,76.68
2019-01-03T07:47:12.986Z,76.68
2019-01-03T07:50:06.250Z,75.90
2019-01-03T07:52:55.967Z,76.25
2019-01-03T07:55:47.381Z,76.83
2019-01-03T07:58:41.201Z,77.96
2019-01-03T08:01:34.509Z,78.06
2019-01-03T08:04:25.247Z,78.73
2019-01-03T08:07:19.192Z,82.79
2019-01-03T08:10:10.488Z,80.81
2019-01-03T08:13:10.795Z,81.46
2019-01-03T08:16:04.391Z,82.11
2019-01-03T08:18:56.989Z,83.19
2019-01-03T08:21:48.727Z,83.09
2019-01-03T08:24:38.994Z,83.03
2019-01-03T08:27:32.005Z,82.40
2019-01-03T08:30:25.214Z,82.38
2019-01-03T08:33:14.786Z,82.70
2019-01-03T08:36:11.587Z,81.96
2019-01-03T08:39:09.041Z,82.23
2019-01-03T08:42:04.371Z,82.40
2019-01-03T08:45:06.791Z,82.10
2019-01-03T08:47:58.543Z,82.53
2019-01-03T08:50:49.401Z,83.05
2019-01-03T08:53:50.347Z,83.05
2019-01-03T08:56:44.251Z,82.78
2019-01-03T08:59:34.266Z,82.91
2019-01-03T09:02:27.490Z,83.37
2019-01-03T09:05:18.318Z,83.37
2019-01-03T09:08:20.996Z,83.53
2019-01-03T09:11:24.918Z,82.47
2019-01-03T09:14:16.663Z,82.27
2019-01-03T09:17:09.308Z,82.87
2019-01-03T09:19:59.545Z,82.31
2019-01-03T09:22:50.286Z,82.58
2019-01-03T09:25:46.898Z,82.65
2019-01-03T09:28:37.491Z,82.84
2019-01-03T09:31:41.810Z,81.90
2019-01-03T09:34:36.559Z,81.81
2019-01-03T09:37:31.594Z,81.89
2019-01-03T09:40:22.846Z,81.72
2019-01-03T09:43:23.737Z,81.16
2019-01-03T09:45:56.592Z,81.44
2019-01-03T09:48:31.328Z,79.68
2019-01-03T09:51:03.709Z,79.22
2019-01-03T09:53:35.158Z,78.85
2019-01-03T09:56:07.771Z,78.99
2019-01-03T09:58:40.870Z,78.00
2019-01-03T10:01:12.719Z,77.97
2019-01-03T10:03:47.261Z,78.77
2019-01-03T10:06:19.810Z,78.40
2019-01-03T10:08:53.735Z,77.07
2019-01-03T10:11:25.920Z,76.91
2019-01-03T10:13:58.903Z,77.39
2019-01-03T10:16:30.183Z,76.66
2019-01-03T10:19:02.994Z,76.42
2019-01-03T10:21:35.855Z,75.92
2019-01-03T10:24:07.868Z,75.27
2019-01-03T10:26:42.509Z,75.67
2019-01-03T10:29:15.237Z,75.39
2019-01-03T10:31:47.923Z,75.44
2019-01-03T10:34:23.488Z,75.46
2019-01-03T10:36:54.969Z,76.09
2019-01-03T10:39:27.830Z,76.04
2019-01-03T10:41:59.951Z,75.50
2019-01-03T10:44:32.849Z,75.88
2019-01-03T10:47:07.301Z,76.05
2019-01-03T10:49:41.568Z,75.89
2019-01-03T10:52:13.895Z,76.40
2019-01-03T10:54:45.099Z,76.22
2019-01-03T10:57:18.056Z,76.74
2019-01-03T10:59:53.760Z,76.54
2019-01-03T11:02:26.640Z,77.02
2019-01-03T11:05:00.097Z,75.97
2019-01-03T11:07:33.168Z,76.67
2019-01-03T11:10:06.312Z,76.37
2019-01-03T11:12:38.322Z,77.07
2019-01-03T11:15:12.107Z,77.65
2019-01-03T11:17:45.907Z,78.20
2019-01-03T11:20:20.047Z,78.60
2019-01-03T11:22:52.994Z,78.60
2019-01-03T11:25:25.558Z,78.57
2019-01-03T11:27:58.244Z,79.49
2019-01-03T11:30:32.736Z,78.56
2019-01-03T11:33:05.656Z,78.52
2019-01-03T11:35:39.191Z,78.43
2019-01-03T11:38:11.858Z,78.56
2019-01-03T11:40:45.293Z,78.72
2019-01-03T11:43:19.350Z,79.14
2019-01-03T11:45:52.278Z,79.80
2019-01-03T11:48:26.268Z,79.85
2019-01-03T11:50:59.176Z,80.76
2019-01-03T11:53:30.438Z,81.26
2019-01-03T11:56:04.993Z,83.01
2019-01-03T11:58:37.172Z,83.65
2019-01-03T12:01:08.388Z,83.93
2019-01-03T12:03:43.827Z,84.56
2019-01-03T12:06:17.353Z,84.44
2019-01-03T12:08:50.892Z,83.96
2019-01-03T12:11:23.335Z,84.00
2019-01-03T12:13:54.634Z,84.13
2019-01-03T12:16:26.236Z,85.06
2019-01-03T12:18:58.425Z,85.52
2019-01-03T12:21:32.428Z,85.87
2019-01-03T12:24:08.217Z,86.32
2019-01-03T12:26:40.072Z,86.81
2019-01-03T12:29:13.464Z,86.85
2019-01-03T12:31:47.338Z,87.78
2019-01-03T12:34:21.351Z,88.05
2019-01-03T12:36:53.401Z,88.59
2019-01-03T12:39:25.504Z,88.29
2019-01-03T12:41:59.444Z,88.83
2019-01-03T12:44:31.061Z,90.11
2019-01-03T12:47:03.426Z,90.93
2019-01-03T12:49:37.479Z,91.80
2019-01-03T12:52:10.413Z,92.59
2019-01-03T12:54:44.505Z,93.61
2019-01-03T12:57:17.908Z,93.94
2019-01-03T12:59:51.425Z,93.97
2019-01-03T13:02:25.512Z,95.64
2019-01-03T13:04:58.724Z,97.42
2019-01-03T13:07:32.536Z,97.36
2019-01-03T13:10:07.085Z,97.50
2019-01-03T13:12:40.522Z,98.21
2019-01-03T13:15:13.637Z,99.15
2019-01-03T13:17:49.402Z,99.74
2019-01-03T13:20:21.669Z,99.99
2019-01-03T13:22:55.278Z,100.00
2019-01-03T13:25:26.624Z,100.00
2019-01-03T13:27:58.567Z,100.00
2019-01-03T13:30:30.701Z,100.00
2019-01-03T13:33:03.890Z,100.00
2019-01-03T13:35:37.697Z,100.00
2019-01-03T13:38:11.554Z,100.00
2019-01-03T13:40:45.571Z,100.00
2019-01-03T13:43:18.812Z,100.00
2019-01-03T13:45:51.671Z,100.00
2019-01-03T13:48:23.842Z,100.00
2019-01-03T13:50:57.835Z,100.00
2019-01-03T13:53:29.801Z,100.00
2019-01-03T13:56:01.762Z,100.00
2019-01-03T13:58:35.085Z,100.00
2019-01-03T14:01:08.872Z,100.00
2019-01-03T14:03:41.855Z,100.00
2019-01-03T14:06:15.915Z,100.00
2019-01-03T14:08:48.917Z,100.00
2019-01-03T14:11:22.845Z,100.00
2019-01-03T14:13:56.949Z,100.00
2019-01-03T14:16:29.951Z,100.00
2019-01-03T14:19:05.587Z,100.00
2019-01-03T14:21:38.912Z,100.00
2019-01-03T14:24:11.042Z,100.00
2019-01-03T14:26:46.527Z,100.00
2019-01-03T14:29:18.044Z,100.00
2019-01-03T14:31:51.997Z,100.00
2019-01-03T14:34:25.078Z,100.00
2019-01-03T14:36:59.216Z,100.00
2019-01-03T14:39:32.998Z,100.00
2019-01-03T14:42:07.027Z,100.00
2019-01-03T14:44:40.064Z,100.00
2019-01-03T14:47:13.017Z,100.00
2019-01-03T14:49:44.309Z,100.00
2019-01-03T14:52:16.174Z,100.00
2019-01-03T14:54:49.004Z,100.00
2019-01-03T14:57:23.062Z,100.00
2019-01-03T14:59:56.970Z,100.00
2019-01-03T15:02:30.078Z,100.00
2019-01-03T15:05:04.915Z,100.00
2019-01-03T15:07:36.941Z,100.00
2019-01-03T15:10:10.392Z,100.00
2019-01-03T15:12:44.306Z,100.00
2019-01-03T15:15:17.154Z,100.00
2019-01-03T15:17:51.247Z,100.00
2019-01-03T15:20:24.436Z,100.00
2019-01-03T15:22:58.175Z,100.00
2019-01-03T15:25:30.204Z,100.00
2019-01-03T15:28:02.150Z,100.00
2019-01-03T15:30:33.733Z,100.00
2019-01-03T15:33:06.232Z,100.00
2019-01-03T15:35:41.882Z,100.00
2019-01-03T15:38:13.156Z,100.00
2019-01-03T15:40:44.499Z,100.00
2019-01-03T15:43:19.975Z,100.00
2019-01-03T15:45:51.311Z,100.00
2019-01-03T15:48:26.186Z,100.00
2019-01-03T15:50:59.360Z,100.00
2019-01-03T15:53:33.108Z,100.00
2019-01-03T15:56:06.383Z,100.00
2019-01-03T15:58:37.634Z,100.00
2019-01-03T16:01:11.541Z,100.00
2019-01-03T16:03:45.430Z,100.00
2019-01-03T16:06:20.001Z,100.00
2019-01-03T16:08:52.398Z,100.00
2019-01-03T16:11:25.501Z,100.00
2019-01-03T16:13:59.338Z,100.00
2019-01-03T16:16:33.411Z,100.00
2019-01-03T16:19:06.608Z,100.00
2019-01-03T16:21:39.433Z,100.00
2019-01-03T16:24:10.799Z,100.00
2019-01-03T16:26:45.241Z,100.00
2019-01-03T16:29:19.382Z,100.00
2019-01-03T16:31:51.633Z,100.00
2019-01-03T16:34:24.454Z,100.00
2019-01-03T16:36:58.677Z,100.00
2019-01-03T16:39:32.584Z,100.00
2019-01-03T16:42:05.491Z,100.00
2019-01-03T16:44:38.382Z,100.00
2019-01-03T16:47:13.094Z,100.00
2019-01-03T16:49:44.572Z,100.00
2019-01-03T16:52:16.704Z,100.00
2019-01-03T16:54:48.559Z,100.00
2019-01-03T16:57:19.876Z,100.00
2019-01-03T16:59:52.702Z,100.00
2019-01-03T17:02:26.677Z,100.00
2019-01-03T17:05:00.890Z,100.00
2019-01-03T17:07:33.778Z,100.00
2019-01-03T17:10:11.380Z,100.00
2019-01-03T17:12:44.771Z,100.00
2019-01-03T17:15:16.706Z,100.00
2019-01-03T17:17:49.734Z,100.00
2019-01-03T17:20:22.791Z,100.00
2019-01-03T17:22:56.468Z,100.00
2019-01-03T17:25:28.829Z,100.00
2019-01-03T17:28:05.063Z,100.00
2019-01-03T17:30:36.856Z,100.00
2019-01-03T17:33:12.411Z,100.00
2019-01-03T17:35:44.448Z,100.00
2019-01-03T17:38:17.894Z,100.00
2019-01-03T17:40:51.809Z,100.00
2019-01-03T17:43:24.940Z,100.00
2019-01-03T17:45:58.920Z,100.00
2019-01-03T17:48:32.729Z,100.00
2019-01-03T17:51:05.224Z,100.00
2019-01-03T17:53:36.894Z,100.00
2019-01-03T17:56:10.811Z,100.00
2019-01-03T17:58:43.827Z,100.00
2019-01-03T18:01:17.888Z,100.00
2019-01-03T18:03:52.105Z,100.00
2019-01-03T18:06:25.972Z,100.00
2019-01-03T18:08:58.911Z,100.00
2019-01-03T18:11:32.853Z,100.00
2019-01-03T18:14:06.859Z,100.00
2019-01-03T18:16:38.898Z,100.00
2019-01-03T18:19:12.772Z,100.00
2019-01-03T18:21:46.042Z,100.00
2019-01-03T18:24:19.029Z,100.00
2019-01-03T18:26:54.520Z,100.00
2019-01-03T18:29:26.317Z,100.00
2019-01-03T18:31:59.970Z,100.00
2019-01-03T18:34:32.280Z,100.00
2019-01-03T18:37:04.096Z,100.00
2019-01-03T18:39:38.053Z,100.00
2019-01-03T18:42:11.097Z,100.00
2019-01-03T18:44:45.119Z,100.00
2019-01-03T18:47:18.019Z,100.00
2019-01-03T18:49:49.267Z,100.00
2019-01-03T18:52:23.195Z,100.00
2019-01-03T18:54:56.168Z,100.00
2019-01-03T18:57:27.441Z,100.00
2019-01-03T19:00:00.253Z,100.00
2019-01-03T19:02:32.189Z,100.00
2019-01-03T19:05:03.605Z,100.00
2019-01-03T19:07:36.620Z,100.00
2019-01-03T19:10:10.845Z,100.00
2019-01-03T19:12:43.016Z,100.00
2019-01-03T19:15:17.031Z,100.00
2019-01-03T19:17:50.162Z,100.00
2019-01-03T19:20:24.283Z,100.00
2019-01-03T19:22:56.227Z,100.00
2019-01-03T19:25:27.473Z,100.00
2019-01-03T19:28:00.120Z,100.00
2019-01-03T19:30:33.299Z,100.00
2019-01-03T19:33:05.495Z,100.00
2019-01-03T19:35:38.298Z,100.00
2019-01-03T19:38:11.213Z,100.00
2019-01-03T19:40:42.504Z,100.00
2019-01-03T19:43:15.351Z,100.00
2019-01-03T19:45:49.340Z,100.00
2019-01-03T19:48:22.351Z,100.00
2019-01-03T19:50:58.035Z,100.00
2019-01-03T19:53:30.285Z,100.00
2019-01-03T19:56:03.430Z,100.00
2019-01-03T19:58:38.727Z,100.00
2019-01-03T20:01:11.452Z,100.00
2019-01-03T20:03:44.471Z,100.00
2019-01-03T20:06:15.786Z,100.00
2019-01-03T20:08:48.385Z,100.00
2019-01-03T20:11:22.608Z,100.00
2019-01-03T20:13:56.473Z,100.00
2019-01-03T20:16:27.778Z,100.00
2019-01-03T20:19:00.599Z,100.00
2019-01-03T20:21:34.543Z,100.00
2019-01-03T20:24:06.254Z,100.00
2019-01-03T20:26:37.533Z,100.00
2019-01-03T20:29:09.622Z,100.00
2019-01-03T20:31:43.477Z,100.00
2019-01-03T20:34:17.370Z,100.00
2019-01-03T20:36:50.723Z,100.00
2019-01-03T20:39:24.594Z,100.00
2019-01-03T20:42:00.090Z,100.00
2019-01-03T20:44:33.537Z,100.00
2019-01-03T20:47:05.505Z,100.00
2019-01-03T20:49:37.508Z,100.00
2019-01-03T20:52:09.546Z,100.00
2019-01-03T20:54:42.700Z,100.00
2019-01-03T20:57:16.906Z,100.00
2019-01-03T20:59:49.664Z,100.00
2019-01-03T21:02:24.567Z,100.00
2019-01-03T21:04:57.636Z,100.00
2019-01-03T21:07:30.695Z,100.00
2019-01-03T21:10:08.083Z,100.00
2019-01-03T21:12:39.814Z,100.00
2019-01-03T21:15:15.288Z,100.00
2019-01-03T21:17:47.643Z,100.00
2019-01-03T21:20:21.625Z,100.00
2019-01-03T21:22:55.734Z,100.00
2019-01-03T21:25:27.161Z,100.00
2019-01-03T21:28:01.423Z,100.00
2019-01-03T21:30:33.888Z,100.00
2019-01-03T21:33:06.787Z,100.00
2019-01-03T21:35:38.062Z,100.00
2019-01-03T21:38:11.751Z,100.00
2019-01-03T21:40:45.929Z,100.00
2019-01-03T21:43:19.223Z,100.00
2019-01-03T21:45:53.034Z,100.00
2019-01-03T21:48:26.066Z,100.00
2019-01-03T21:51:00.032Z,100.00
2019-01-03T21:53:33.861Z,100.00
2019-01-03T21:56:07.809Z,100.00
2019-01-03T21:58:40.868Z,100.00
2019-01-03T22:01:14.873Z,100.00
2019-01-03T22:03:47.963Z,100.00
2019-01-03T22:06:21.979Z,100.00
2019-01-03T22:08:55.542Z,100.00
2019-01-03T22:11:27.239Z,100.00
2019-01-03T22:14:00.062Z,100.00
2019-01-03T22:16:35.594Z,100.00
2019-01-03T22:19:06.993Z,100.00
2019-01-03T22:21:40.078Z,100.00
2019-01-03T22:24:15.586Z,100.00
2019-01-03T22:26:48.107Z,100.00
2019-01-03T22:29:21.193Z,100.00
2019-01-03T22:31:55.244Z,100.00
2019-01-03T22:34:27.777Z,100.00
2019-01-03T22:36:59.045Z,100.00
2019-01-03T22:39:34.702Z,100.00
2019-01-03T22:42:07.164Z,100.00
2019-01-03T22:44:41.474Z,100.00
2019-01-03T22:47:15.292Z,100.00
2019-01-03T22:49:48.251Z,100.00
2019-01-03T22:52:22.193Z,100.00
2019-01-03T22:54:57.771Z,100.00
2019-01-03T22:57:30.283Z,100.00
2019-01-03T23:00:03.463Z,100.00
2019-01-03T23:02:37.287Z,100.00
2019-01-03T23:05:12.688Z,100.00
2019-01-03T23:07:45.845Z,100.00
2019-01-03T23:10:18.382Z,100.00
2019-01-03T23:12:51.325Z,100.00
2019-01-03T23:15:27.088Z,100.00
2019-01-03T23:17:58.827Z,100.00
2019-01-03T23:20:32.394Z,100.00
2019-01-03T23:23:06.352Z,100.00
2019-01-03T23:25:39.573Z,100.00
2019-01-03T23:28:13.303Z,100.00
2019-01-03T23:30:46.946Z,100.00
2019-01-03T23:33:20.420Z,100.00
2019-01-03T23:35:54.576Z,100.00
2019-01-03T23:38:27.157Z,100.00
2019-01-03T23:41:03.021Z,100.00
2019-01-03T23:43:35.463Z,100.00
2019-01-03T23:46:09.402Z,100.00
2019-01-03T23:48:42.341Z,100.00
2019-01-03T23:51:16.445Z,100.00
2019-01-03T23:53:50.360Z,100.00
2019-01-03T23:56:24.171Z,100.00
2019-01-03T23:58:57.648Z,100.00
